Time;durP1;ratioP1;P1;durP2;ratioP2;P2;SDS_P1;SDS_P2;PMS_P1;PMS_P2;Temp;Humidity;BMP_temperature;BMP_pressure;BME280_temperature;BME280_humidity;BME280_pressure;Samples;Min_cycle;Max_cycle;Signal;HPM_P1;HPM_P2
2021/12/27 00:06:14;;;;;;;4.95;2.83;;;;;;;;;;21095478;28;20154;-60
2021/12/27 00:16:17;;;;;;;5.07;3.00;;;;;;;;;;21094673;28;20086;-60
2021/12/27 00:26:19;;;;;;;5.72;2.97;;;;;;;;;;21095061;28;20052;-58
2021/12/27 00:36:22;;;;;;;2.40;1.58;;;;;;;;;;21093841;28;20055;-59
2021/12/27 00:46:24;;;;;;;2.95;1.83;;;;;;;;;;21093036;28;20366;-59
2021/12/27 00:56:27;;;;;;;1.25;0.80;;;;;;;;;;21092064;28;20567;-60
2021/12/27 01:06:29;;;;;;;0.98;0.80;;;;;;;;;;21089886;28;20478;-58
2021/12/27 01:16:31;;;;;;;0.75;0.50;;;;;;;;;;21089959;28;20070;-58
2021/12/27 01:26:33;;;;;;;1.95;0.60;;;;;;;;;;21089266;28;20052;-57
2021/12/27 01:36:36;;;;;;;1.42;0.70;;;;;;;;;;21088330;28;20048;-59
2021/12/27 01:46:40;;;;;;;1.20;0.70;;;;;;;;;;21087632;28;20052;-59
2021/12/27 01:56:42;;;;;;;1.23;0.82;;;;;;;;;;21086405;28;20525;-58
2021/12/27 02:06:44;;;;;;;2.65;1.00;;;;;;;;;;21086287;28;20051;-60
2021/12/27 02:16:46;;;;;;;2.47;1.00;;;;;;;;;;21084885;28;20103;-60
2021/12/27 02:26:51;;;;;;;1.45;0.70;;;;;;;;;;21066280;28;20497;-59
2021/12/27 02:36:53;;;;;;;1.67;0.90;;;;;;;;;;21065196;28;20062;-59
2021/12/27 02:46:56;;;;;;;1.25;0.60;;;;;;;;;;21083492;28;20051;-57
2021/12/27 02:56:58;;;;;;;1.10;0.80;;;;;;;;;;21081559;28;20127;-59
2021/12/27 03:07:07;;;;;;;1.65;0.93;;;;;;;;;;21081542;28;20051;-58
2021/12/27 03:17:18;;;;;;;2.42;0.73;;;;;;;;;;21080477;28;20051;-58
2021/12/27 03:27:26;;;;;;;1.92;0.73;;;;;;;;;;21078955;28;20048;-59
2021/12/27 03:37:32;;;;;;;1.60;0.70;;;;;;;;;;21078982;28;20044;-58
2021/12/27 03:47:37;;;;;;;1.63;0.63;;;;;;;;;;21078534;28;20052;-58
2021/12/27 03:57:42;;;;;;;1.85;0.70;;;;;;;;;;21060090;28;20059;-58
2021/12/27 04:07:55;;;;;;;2.30;0.90;;;;;;;;;;21078077;28;20127;-59
2021/12/27 04:17:58;;;;;;;1.00;0.73;;;;;;;;;;21078057;28;20059;-60
2021/12/27 04:28:04;;;;;;;2.20;1.20;;;;;;;;;;21077413;28;20130;-58
2021/12/27 04:38:06;;;;;;;1.30;1.00;;;;;;;;;;21076307;28;20044;-59
2021/12/27 04:48:17;;;;;;;1.48;0.77;;;;;;;;;;21092507;28;20122;-59
2021/12/27 04:58:22;;;;;;;3.10;1.45;;;;;;;;;;21072707;28;20083;-57
2021/12/27 05:08:24;;;;;;;1.00;0.90;;;;;;;;;;21089671;28;20044;-58
2021/12/27 05:18:27;;;;;;;1.50;1.05;;;;;;;;;;21089225;28;20048;-58
2021/12/27 05:28:29;;;;;;;1.48;1.00;;;;;;;;;;21088736;28;20044;-58
2021/12/27 05:38:31;;;;;;;1.73;1.10;;;;;;;;;;21087824;28;20052;-58
2021/12/27 05:48:34;;;;;;;1.38;0.80;;;;;;;;;;21087999;28;20087;-57
2021/12/27 05:58:36;;;;;;;1.73;1.10;;;;;;;;;;21000006;28;20421;-57
2021/12/27 06:08:38;;;;;;;1.70;0.70;;;;;;;;;;21001777;28;20091;-58
2021/12/27 06:18:40;;;;;;;1.02;0.80;;;;;;;;;;21000837;28;20072;-57
2021/12/27 06:28:42;;;;;;;1.73;1.00;;;;;;;;;;21000110;28;20048;-58
2021/12/27 06:38:44;;;;;;;1.52;0.77;;;;;;;;;;20998724;28;20056;-58
2021/12/27 06:48:48;;;;;;;2.03;0.77;;;;;;;;;;21000038;28;20053;-58
2021/12/27 06:58:51;;;;;;;4.05;0.73;;;;;;;;;;21080806;28;20048;-59
2021/12/27 07:08:53;;;;;;;3.78;0.70;;;;;;;;;;21079498;28;20062;-58
2021/12/27 07:18:56;;;;;;;2.30;0.73;;;;;;;;;;21079816;28;20051;-58
2021/12/27 07:28:59;;;;;;;1.88;0.77;;;;;;;;;;21079127;28;20079;-58
2021/12/27 07:39:01;;;;;;;1.83;0.70;;;;;;;;;;21078314;28;20501;-58
2021/12/27 07:49:04;;;;;;;5.28;0.93;;;;;;;;;;21079093;28;20413;-58
2021/12/27 07:59:07;;;;;;;4.30;1.00;;;;;;;;;;21060438;28;20485;-58
2021/12/27 08:09:10;;;;;;;4.45;1.42;;;;;;;;;;21077751;28;20048;-60
2021/12/27 08:19:13;;;;;;;5.38;1.50;;;;;;;;;;21086895;28;20055;-58
2021/12/27 08:29:16;;;;;;;4.72;1.38;;;;;;;;;;21092772;28;20113;-59
2021/12/27 08:39:17;;;;;;;4.75;1.75;;;;;;;;;;21092098;28;20540;-59
2021/12/27 08:49:21;;;;;;;7.88;2.17;;;;;;;;;;21091859;28;20052;-58
2021/12/27 08:59:25;;;;;;;10.00;2.63;;;;;;;;;;21090367;28;20126;-59
2021/12/27 09:09:26;;;;;;;13.60;2.80;;;;;;;;;;21090430;28;20048;-58
2021/12/27 09:19:29;;;;;;;13.98;2.92;;;;;;;;;;21089489;28;20051;-59
2021/12/27 09:29:31;;;;;;;8.63;2.65;;;;;;;;;;21087653;28;20051;-59
2021/12/27 09:39:32;;;;;;;13.88;2.97;;;;;;;;;;21088403;28;20097;-58
2021/12/27 09:49:34;;;;;;;16.17;3.47;;;;;;;;;;21086855;28;20455;-59
2021/12/27 09:59:36;;;;;;;15.48;3.33;;;;;;;;;;21086306;28;20081;-58
2021/12/27 10:09:38;;;;;;;19.63;3.38;;;;;;;;;;21086111;28;20433;-57
2021/12/27 10:19:40;;;;;;;16.30;2.58;;;;;;;;;;21084465;28;20048;-58
2021/12/27 10:29:42;;;;;;;13.30;3.28;;;;;;;;;;21083781;28;20044;-55
2021/12/27 10:39:45;;;;;;;11.70;2.85;;;;;;;;;;21082912;28;20095;-59
2021/12/27 10:49:48;;;;;;;11.52;2.47;;;;;;;;;;21081966;28;20050;-57
2021/12/27 10:59:50;;;;;;;14.27;3.28;;;;;;;;;;21081653;28;20569;-58
2021/12/27 11:09:52;;;;;;;14.02;2.97;;;;;;;;;;21080806;28;20075;-59
2021/12/27 11:19:54;;;;;;;12.02;3.25;;;;;;;;;;21079969;28;20058;-58
2021/12/27 11:30:09;;;;;;;13.40;2.70;;;;;;;;;;21079717;28;20044;-59
2021/12/27 11:40:13;;;;;;;15.52;4.05;;;;;;;;;;21077520;28;20481;-57
2021/12/27 11:50:16;;;;;;;13.37;2.93;;;;;;;;;;21075828;28;20143;-56
2021/12/27 12:00:18;;;;;;;15.50;3.70;;;;;;;;;;21078066;28;20048;-58
2021/12/27 12:10:20;;;;;;;16.95;4.68;;;;;;;;;;21077374;28;20486;-57
2021/12/27 12:20:26;;;;;;;12.73;5.15;;;;;;;;;;21076239;28;20044;-62
2021/12/27 12:30:32;;;;;;;10.68;2.83;;;;;;;;;;21071980;28;20036;-64
2021/12/27 12:40:34;;;;;;;11.35;2.92;;;;;;;;;;21076146;28;20056;-56
2021/12/27 12:50:36;;;;;;;12.43;3.40;;;;;;;;;;21073715;28;20044;-58
2021/12/27 13:00:39;;;;;;;11.45;3.40;;;;;;;;;;21069918;28;20054;-56
2021/12/27 13:10:42;;;;;;;20.38;3.25;;;;;;;;;;21087215;28;20098;-57
2021/12/27 13:20:50;;;;;;;17.03;3.20;;;;;;;;;;21069251;28;20040;-60
2021/12/27 13:30:53;;;;;;;13.13;3.80;;;;;;;;;;21086155;28;20052;-65
2021/12/27 13:41:04;;;;;;;14.52;3.53;;;;;;;;;;21086357;28;20469;-68
2021/12/27 13:51:06;;;;;;;12.95;3.00;;;;;;;;;;21087321;28;20055;-68
2021/12/27 14:01:10;;;;;;;15.68;3.40;;;;;;;;;;21085962;28;20161;-63
2021/12/27 14:11:13;;;;;;;18.40;4.07;;;;;;;;;;21086214;28;20044;-71
2021/12/27 14:21:17;;;;;;;13.63;2.75;;;;;;;;;;21084987;28;20070;-73
2021/12/27 14:31:25;;;;;;;14.57;2.92;;;;;;;;;;21084729;28;20055;-72
2021/12/27 14:41:27;;;;;;;16.77;3.85;;;;;;;;;;21083013;28;20545;-73
2021/12/27 14:51:30;;;;;;;10.13;3.38;;;;;;;;;;21082482;28;20126;-70
2021/12/27 15:01:32;;;;;;;20.40;3.35;;;;;;;;;;21081204;28;20435;-67
2021/12/27 15:11:35;;;;;;;16.85;3.65;;;;;;;;;;21083386;28;20044;-74
2021/12/27 15:21:40;;;;;;;17.23;4.28;;;;;;;;;;21080933;28;20472;-73
2021/12/27 15:31:43;;;;;;;17.13;3.95;;;;;;;;;;21080011;28;20072;-71
2021/12/27 15:41:49;;;;;;;14.02;3.92;;;;;;;;;;21081195;28;20048;-65
2021/12/27 15:51:53;;;;;;;20.88;3.58;;;;;;;;;;21079280;28;20511;-69
2021/12/27 16:01:55;;;;;;;17.70;4.05;;;;;;;;;;21078093;28;20097;-72
2021/12/27 16:11:59;;;;;;;14.50;3.50;;;;;;;;;;21077243;28;20044;-73
2021/12/27 16:22:02;;;;;;;11.90;3.10;;;;;;;;;;21078945;28;20088;-73
2021/12/27 16:32:05;;;;;;;11.98;3.35;;;;;;;;;;21058896;28;20055;-73
2021/12/27 16:42:11;;;;;;;17.67;3.42;;;;;;;;;;21088394;28;20138;-71
2021/12/27 16:52:13;;;;;;;14.07;3.67;;;;;;;;;;21092815;28;20081;-73
2021/12/27 17:02:16;;;;;;;15.27;4.00;;;;;;;;;;21091506;28;20044;-73
2021/12/27 17:12:18;;;;;;;13.35;4.22;;;;;;;;;;21090914;28;20067;-73
2021/12/27 17:22:20;;;;;;;13.30;3.60;;;;;;;;;;21089843;28;20059;-72
2021/12/27 17:32:22;;;;;;;23.95;8.82;;;;;;;;;;21089870;28;20062;-73
2021/12/27 17:42:24;;;;;;;18.15;3.58;;;;;;;;;;21089434;28;20052;-74
2021/12/27 17:52:26;;;;;;;15.48;2.90;;;;;;;;;;21087030;28;20040;-71
2021/12/27 18:02:28;;;;;;;10.35;3.78;;;;;;;;;;21087590;28;20044;-72
2021/12/27 18:12:31;;;;;;;14.82;4.80;;;;;;;;;;21085720;28;20135;-75
2021/12/27 18:22:33;;;;;;;14.05;3.30;;;;;;;;;;21085121;28;20055;-63
2021/12/27 18:32:35;;;;;;;14.48;3.28;;;;;;;;;;21102638;28;20051;-65
2021/12/27 18:42:36;;;;;;;13.52;3.03;;;;;;;;;;21100422;28;20058;-66
2021/12/27 18:52:41;;;;;;;13.90;2.88;;;;;;;;;;21127550;28;20140;-75
2021/12/27 19:02:43;;;;;;;15.00;3.60;;;;;;;;;;21093957;28;20413;-75
2021/12/27 19:12:49;;;;;;;14.85;3.63;;;;;;;;;;21082953;28;20101;-74
2021/12/27 19:22:51;;;;;;;19.98;3.75;;;;;;;;;;21082935;28;20071;-73
2021/12/27 19:32:54;;;;;;;11.68;3.92;;;;;;;;;;21084374;28;20044;-74
2021/12/27 19:42:56;;;;;;;19.20;4.15;;;;;;;;;;21082918;28;20048;-73
2021/12/27 19:52:58;;;;;;;14.63;4.45;;;;;;;;;;21078863;28;20058;-74
2021/12/27 20:03:01;;;;;;;16.25;3.97;;;;;;;;;;21078602;28;20401;-73
2021/12/27 20:13:04;;;;;;;15.20;3.58;;;;;;;;;;21067638;28;20419;-73
2021/12/27 20:23:06;;;;;;;14.48;3.78;;;;;;;;;;21095996;28;20391;-74
2021/12/27 20:33:09;;;;;;;17.13;3.65;;;;;;;;;;21096854;28;20044;-73
2021/12/27 20:43:10;;;;;;;12.70;4.63;;;;;;;;;;21094965;28;20075;-71
2021/12/27 20:53:14;;;;;;;15.18;3.70;;;;;;;;;;21092649;28;20056;-75
2021/12/27 21:03:16;;;;;;;20.13;4.63;;;;;;;;;;21091932;28;20040;-73
2021/12/27 21:13:19;;;;;;;17.52;4.78;;;;;;;;;;21091114;28;20044;-72
2021/12/27 21:23:21;;;;;;;17.58;3.60;;;;;;;;;;21089074;28;20083;-72
2021/12/27 21:33:23;;;;;;;14.63;4.22;;;;;;;;;;21089674;28;20063;-73
2021/12/27 21:43:25;;;;;;;16.55;4.82;;;;;;;;;;21088404;28;20086;-64
2021/12/27 21:53:27;;;;;;;17.67;4.95;;;;;;;;;;21087080;28;20506;-65
2021/12/27 22:03:29;;;;;;;20.98;5.03;;;;;;;;;;21087474;28;20052;-63
2021/12/27 22:13:31;;;;;;;16.25;4.50;;;;;;;;;;21086158;28;20051;-76
2021/12/27 22:23:33;;;;;;;20.35;4.40;;;;;;;;;;21094165;28;20055;-73
2021/12/27 22:33:36;;;;;;;21.55;4.32;;;;;;;;;;21071104;28;20082;-64
2021/12/27 22:43:38;;;;;;;14.27;4.10;;;;;;;;;;21083877;28;20450;-69
2021/12/27 22:53:40;;;;;;;15.02;3.47;;;;;;;;;;21083973;28;20048;-70
2021/12/27 23:03:42;;;;;;;15.43;3.65;;;;;;;;;;21083533;28;20477;-63
2021/12/27 23:13:44;;;;;;;17.50;4.28;;;;;;;;;;21081231;28;20044;-68
2021/12/27 23:23:46;;;;;;;16.80;3.70;;;;;;;;;;21080318;28;20066;-63
2021/12/27 23:33:50;;;;;;;19.17;3.60;;;;;;;;;;21061307;28;20055;-69
2021/12/27 23:43:52;;;;;;;17.25;3.25;;;;;;;;;;21079802;28;20047;-66
2021/12/27 23:53:54;;;;;;;15.02;3.03;;;;;;;;;;21077749;28;20048;-63
